Time;durP1;ratioP1;P1;durP2;ratioP2;P2;SDS_P1;SDS_P2;PMS_P1;PMS_P2;Temp;Humidity;BMP_temperature;BMP_pressure;BME280_temperature;BME280_humidity;BME280_pressure;Samples;Min_cycle;Max_cycle;Signal;HPM_P1;HPM_P2
2023/05/23 00:02:18;;;;;;;33.50;21.33;;;13.60;99.90;;;;;;4986074;28;20054;-67
2023/05/23 00:04:44;;;;;;;34.90;20.63;;;13.70;99.90;;;;;;4961531;28;209944;-68
2023/05/23 00:07:10;;;;;;;32.65;19.70;;;13.70;99.90;;;;;;4990548;28;20522;-67
2023/05/23 00:09:37;;;;;;;28.48;17.42;;;13.70;99.90;;;;;;4959269;28;212919;-67
2023/05/23 00:12:03;;;;;;;30.52;16.40;;;13.80;99.90;;;;;;4990470;28;20050;-66
2023/05/23 00:14:34;;;;;;;31.95;18.33;;;13.80;99.90;;;;;;4958163;28;222047;-68
2023/05/23 00:17:00;;;;;;;32.95;19.50;;;13.80;99.90;;;;;;4997017;28;20062;-67
2023/05/23 00:19:26;;;;;;;40.40;21.85;;;13.80;99.90;;;;;;4969466;28;208134;-67
2023/05/23 00:21:55;;;;;;;30.95;18.88;;;13.80;99.90;;;;;;5012744;28;20052;-68
2023/05/23 00:24:21;;;;;;;36.28;21.90;;;13.80;99.90;;;;;;4948568;28;219695;-68
2023/05/23 00:26:47;;;;;;;37.28;20.35;;;13.80;99.90;;;;;;5011755;28;20053;-69
2023/05/23 00:29:15;;;;;;;29.83;19.60;;;13.80;99.90;;;;;;4962158;28;206723;-67
2023/05/23 00:31:45;;;;;;;32.50;18.13;;;13.80;99.90;;;;;;5014530;28;20388;-70
2023/05/23 00:34:13;;;;;;;32.78;19.63;;;13.80;99.90;;;;;;4953779;28;209740;-67
2023/05/23 00:36:40;;;;;;;29.70;19.02;;;13.80;99.90;;;;;;5016623;28;20053;-68
2023/05/23 00:39:07;;;;;;;33.30;19.75;;;13.80;99.90;;;;;;4956395;28;227311;-68
2023/05/23 00:41:34;;;;;;;32.42;18.23;;;13.80;99.90;;;;;;4999998;28;20065;-69
2023/05/23 00:44:02;;;;;;;31.15;17.20;;;13.80;99.90;;;;;;4945787;28;217064;-68
2023/05/23 00:46:31;;;;;;;35.00;17.50;;;13.80;99.90;;;;;;4995651;28;20423;-70
2023/05/23 00:48:57;;;;;;;28.92;17.83;;;13.80;99.90;;;;;;4969279;28;206998;-70
2023/05/23 00:51:24;;;;;;;35.63;17.60;;;13.70;99.90;;;;;;4998035;28;20499;-68
2023/05/23 00:53:50;;;;;;;29.60;16.75;;;13.70;99.90;;;;;;4937575;28;220350;-70
2023/05/23 00:56:18;;;;;;;25.67;17.55;;;13.70;99.90;;;;;;5010699;28;20050;-71
2023/05/23 00:58:44;;;;;;;29.45;18.77;;;13.60;99.90;;;;;;4938207;28;242704;-71
2023/05/23 01:01:10;;;;;;;26.48;17.65;;;13.70;99.90;;;;;;5018336;28;20050;-69
2023/05/23 01:03:36;;;;;;;36.28;18.90;;;13.60;99.90;;;;;;4958411;28;209411;-71
2023/05/23 01:06:02;;;;;;;31.02;18.98;;;13.60;99.90;;;;;;5013364;28;20550;-70
2023/05/23 01:08:31;;;;;;;33.17;19.73;;;13.60;99.90;;;;;;4954708;28;209185;-69
2023/05/23 01:11:03;;;;;;;29.45;18.60;;;13.60;99.90;;;;;;5009915;28;20521;-70
2023/05/23 01:14:01;;;;;;;36.42;19.27;;;13.60;99.90;;;;;;4948787;28;206865;-69
2023/05/23 01:16:40;;;;;;;35.40;17.60;;;13.60;99.90;;;;;;4983059;28;20416;-70
2023/05/23 01:19:31;;;;;;;31.75;16.85;;;13.60;99.90;;;;;;4949037;28;218986;-71
2023/05/23 01:22:04;;;;;;;26.90;15.98;;;13.50;99.90;;;;;;5011224;28;20070;-69
2023/05/23 01:24:38;;;;;;;28.60;14.25;;;13.60;99.90;;;;;;4935843;28;207880;-69
2023/05/23 01:27:20;;;;;;;22.30;14.27;;;13.50;99.90;;;;;;4986973;28;20053;-68
2023/05/23 01:29:52;;;;;;;26.63;13.27;;;13.60;99.90;;;;;;4953992;28;201524;-67
2023/05/23 01:32:21;;;;;;;25.75;11.90;;;13.60;99.90;;;;;;4981933;28;20062;-69
2023/05/23 01:34:51;;;;;;;23.70;12.10;;;13.60;99.90;;;;;;4957472;28;208192;-67
2023/05/23 01:37:18;;;;;;;25.50;11.32;;;13.60;99.90;;;;;;5003283;28;20062;-70
2023/05/23 01:39:45;;;;;;;21.42;11.05;;;13.60;99.90;;;;;;4962769;28;206059;-69
2023/05/23 01:42:12;;;;;;;23.10;10.65;;;13.50;99.90;;;;;;4980018;28;20051;-67
2023/05/23 01:44:38;;;;;;;24.75;11.00;;;13.40;99.90;;;;;;4957271;28;210132;-69
2023/05/23 01:47:07;;;;;;;27.40;11.48;;;13.40;99.90;;;;;;4984265;28;20045;-69
2023/05/23 01:49:35;;;;;;;24.65;10.73;;;13.40;99.90;;;;;;4958675;28;215748;-68
2023/05/23 01:52:02;;;;;;;29.10;11.93;;;13.40;99.90;;;;;;5008258;28;20459;-68
2023/05/23 01:54:29;;;;;;;30.65;12.43;;;13.40;99.90;;;;;;4949465;28;225185;-70
2023/05/23 01:57:00;;;;;;;30.60;12.32;;;13.40;99.90;;;;;;4989812;28;20061;-69
2023/05/23 01:59:26;;;;;;;27.58;11.80;;;13.30;99.90;;;;;;4948524;28;209773;-69
2023/05/23 02:01:52;;;;;;;34.90;12.35;;;13.20;99.90;;;;;;4988421;28;20669;-69
2023/05/23 02:04:18;;;;;;;32.55;13.30;;;13.10;99.90;;;;;;4941930;28;220067;-68
2023/05/23 02:06:45;;;;;;;32.08;12.77;;;13.10;99.90;;;;;;4993442;28;20058;-69
2023/05/23 02:09:11;;;;;;;30.00;12.80;;;13.10;99.90;;;;;;4937848;28;209234;-68
2023/05/23 02:11:37;;;;;;;33.30;14.00;;;13.00;99.90;;;;;;4985200;28;20061;-69
2023/05/23 02:14:03;;;;;;;33.33;12.90;;;13.00;99.90;;;;;;4942993;28;207926;-68
2023/05/23 02:16:29;;;;;;;30.25;13.35;;;13.00;99.90;;;;;;4999049;28;20631;-68
2023/05/23 02:18:56;;;;;;;36.42;13.63;;;13.00;99.90;;;;;;4955387;28;189521;-68
2023/05/23 02:21:23;;;;;;;35.50;13.52;;;12.90;99.90;;;;;;4998171;28;20054;-70
2023/05/23 02:23:49;;;;;;;32.10;13.15;;;12.90;99.90;;;;;;4932943;28;210249;-68
2023/05/23 02:26:15;;;;;;;31.60;13.45;;;12.80;99.90;;;;;;4985704;28;20061;-69
2023/05/23 02:28:41;;;;;;;31.98;12.27;;;12.80;99.90;;;;;;4933974;28;208255;-70
2023/05/23 02:31:07;;;;;;;26.73;12.20;;;12.80;99.90;;;;;;5008468;28;20054;-69
2023/05/23 02:33:33;;;;;;;29.45;11.95;;;12.80;99.90;;;;;;4961940;28;207004;-69
2023/05/23 02:36:00;;;;;;;32.65;11.73;;;12.70;99.90;;;;;;5010056;28;20062;-69
2023/05/23 02:38:27;;;;;;;29.13;11.90;;;12.60;99.90;;;;;;4935772;28;210594;-71
2023/05/23 02:40:53;;;;;;;34.25;11.75;;;12.70;99.90;;;;;;5009766;28;20065;-73
2023/05/23 02:43:19;;;;;;;33.63;11.88;;;12.70;99.90;;;;;;4938722;28;210871;-72
2023/05/23 02:45:45;;;;;;;29.92;11.82;;;12.60;99.90;;;;;;4997945;28;20053;-71
2023/05/23 02:48:11;;;;;;;32.53;11.67;;;12.70;99.90;;;;;;4975022;28;230051;-75
2023/05/23 02:50:37;;;;;;;32.15;11.35;;;12.60;99.90;;;;;;5001603;28;20050;-73
2023/05/23 02:53:04;;;;;;;31.50;10.90;;;12.60;99.90;;;;;;4939135;28;211975;-74
2023/05/23 02:55:30;;;;;;;34.78;10.15;;;12.50;99.90;;;;;;4987052;28;20057;-72
2023/05/23 02:57:57;;;;;;;34.33;10.45;;;12.50;99.90;;;;;;5006041;28;20057;-73
2023/05/23 03:00:24;;;;;;;28.85;9.95;;;12.50;99.90;;;;;;4958419;28;140880;-73
2023/05/23 03:02:50;;;;;;;29.10;9.18;;;12.50;99.90;;;;;;4998389;28;20054;-73
2023/05/23 03:05:16;;;;;;;25.15;8.77;;;12.50;99.90;;;;;;4950546;28;207565;-73
2023/05/23 03:07:42;;;;;;;31.63;9.40;;;12.50;99.90;;;;;;4998177;28;20419;-71
2023/05/23 03:10:09;;;;;;;29.08;8.70;;;12.40;99.90;;;;;;4974782;28;208931;-71
2023/05/23 03:12:36;;;;;;;30.10;9.15;;;12.50;99.90;;;;;;5005657;28;20065;-73
2023/05/23 03:15:02;;;;;;;23.48;8.75;;;12.50;99.90;;;;;;4963594;28;207673;-75
2023/05/23 03:17:28;;;;;;;24.27;9.23;;;12.40;99.90;;;;;;4987694;28;20057;-71
2023/05/23 03:19:56;;;;;;;28.52;9.18;;;12.50;99.90;;;;;;4955704;28;229969;-71
2023/05/23 03:22:22;;;;;;;29.80;8.85;;;12.50;99.90;;;;;;4985678;28;20046;-71
2023/05/23 03:24:48;;;;;;;26.08;8.80;;;12.40;99.90;;;;;;4965477;28;208662;-70
2023/05/23 03:27:14;;;;;;;31.45;9.73;;;12.40;99.90;;;;;;5005330;28;20419;-71
2023/05/23 03:29:40;;;;;;;32.88;10.25;;;12.30;99.90;;;;;;4968605;28;208005;-71
2023/05/23 03:32:07;;;;;;;28.52;9.85;;;12.30;99.90;;;;;;5003920;28;20069;-73
2023/05/23 03:34:35;;;;;;;27.80;8.90;;;12.30;99.90;;;;;;4975927;28;208130;-72
2023/05/23 03:37:01;;;;;;;28.90;9.57;;;12.30;99.90;;;;;;5007777;28;20050;-71
2023/05/23 03:39:27;;;;;;;28.92;9.43;;;12.30;99.90;;;;;;4970924;28;209335;-70
2023/05/23 03:41:53;;;;;;;27.00;8.15;;;12.30;99.90;;;;;;4987380;28;20062;-70
2023/05/23 03:44:19;;;;;;;24.88;8.38;;;12.30;99.90;;;;;;4948091;28;205464;-69
2023/05/23 03:46:45;;;;;;;23.63;8.48;;;12.40;99.90;;;;;;4988613;28;20051;-70
2023/05/23 03:49:11;;;;;;;28.52;8.10;;;12.30;99.90;;;;;;4950407;28;206572;-70
2023/05/23 03:51:37;;;;;;;24.08;8.07;;;12.30;99.90;;;;;;5014762;28;20053;-70
2023/05/23 03:54:04;;;;;;;27.52;8.82;;;12.30;99.90;;;;;;4959249;28;221866;-70
2023/05/23 03:56:30;;;;;;;23.55;8.45;;;12.40;99.90;;;;;;4994133;28;20057;-70
2023/05/23 03:58:56;;;;;;;28.77;8.27;;;12.40;99.90;;;;;;4951822;28;157092;-70
2023/05/23 04:01:22;;;;;;;30.10;8.25;;;12.40;99.90;;;;;;4999211;28;20060;-69
2023/05/23 04:03:48;;;;;;;21.20;7.20;;;12.30;99.90;;;;;;4934389;28;218728;-71
2023/05/23 04:06:16;;;;;;;21.33;7.05;;;12.30;99.90;;;;;;4993517;28;20060;-70
2023/05/23 04:08:42;;;;;;;24.65;6.88;;;12.30;99.90;;;;;;4965807;28;206565;-70
2023/05/23 04:11:08;;;;;;;23.75;6.10;;;12.30;99.90;;;;;;5004229;28;20053;-71
2023/05/23 04:13:34;;;;;;;21.90;6.30;;;12.20;99.90;;;;;;4947993;28;211587;-72
2023/05/23 04:16:03;;;;;;;22.92;6.28;;;12.20;99.90;;;;;;4994560;28;20046;-71
2023/05/23 04:18:32;;;;;;;22.17;6.57;;;12.20;99.90;;;;;;4933326;28;207421;-70
2023/05/23 04:20:58;;;;;;;25.27;6.35;;;12.20;99.90;;;;;;4995198;28;20161;-71
2023/05/23 04:23:24;;;;;;;25.45;6.47;;;12.20;99.90;;;;;;4944534;28;207107;-70
2023/05/23 04:25:51;;;;;;;25.40;6.57;;;12.10;99.90;;;;;;5013977;28;20057;-69
2023/05/23 04:28:17;;;;;;;26.23;6.55;;;12.10;99.90;;;;;;4951632;28;207380;-71
2023/05/23 04:30:44;;;;;;;26.27;6.60;;;12.10;99.90;;;;;;5011843;28;20472;-70
2023/05/23 04:33:10;;;;;;;24.20;6.75;;;12.10;99.90;;;;;;4929378;28;208978;-69
2023/05/23 04:35:39;;;;;;;23.77;6.35;;;12.10;99.90;;;;;;5026579;28;20057;-70
2023/05/23 04:38:05;;;;;;;21.27;6.05;;;12.00;99.90;;;;;;4957049;28;212548;-70
2023/05/23 04:40:32;;;;;;;23.60;6.43;;;12.00;99.90;;;;;;5011128;28;20062;-71
2023/05/23 04:42:58;;;;;;;22.30;6.70;;;12.00;99.90;;;;;;4996211;28;209924;-69
2023/05/23 04:45:25;;;;;;;22.73;6.10;;;12.10;99.90;;;;;;4969384;28;207021;-71
2023/05/23 04:47:53;;;;;;;26.50;6.75;;;12.00;99.90;;;;;;5004121;28;20116;-70
2023/05/23 04:50:21;;;;;;;19.95;5.32;;;12.00;99.90;;;;;;4964453;28;207370;-69
2023/05/23 04:52:48;;;;;;;21.75;5.40;;;12.00;99.90;;;;;;5031947;28;20073;-71
2023/05/23 04:55:14;;;;;;;24.40;4.82;;;12.00;99.90;;;;;;4951457;28;213760;-71
2023/05/23 04:57:40;;;;;;;24.48;5.55;;;12.00;99.90;;;;;;4980551;28;20058;-70
2023/05/23 05:00:09;;;;;;;18.30;5.32;;;12.00;99.90;;;;;;4936964;28;216421;-69
2023/05/23 05:02:36;;;;;;;19.83;5.43;;;12.00;99.90;;;;;;4980724;28;20062;-70
2023/05/23 05:05:03;;;;;;;22.50;5.68;;;12.00;99.90;;;;;;4974841;28;207275;-71
2023/05/23 05:07:29;;;;;;;21.70;5.60;;;11.90;99.90;;;;;;4988059;28;20415;-71
2023/05/23 05:09:56;;;;;;;22.23;5.30;;;11.90;99.90;;;;;;4971212;28;259947;-72
2023/05/23 05:12:22;;;;;;;28.92;7.68;;;11.90;99.90;;;;;;4986091;28;20064;-71
2023/05/23 05:14:48;;;;;;;31.95;8.18;;;11.80;99.90;;;;;;4942472;28;207566;-69
2023/05/23 05:17:14;;;;;;;26.25;7.82;;;11.70;99.90;;;;;;4985656;28;20145;-71
2023/05/23 05:19:40;;;;;;;33.17;8.57;;;11.70;99.90;;;;;;4954559;28;216029;-70
2023/05/23 05:22:06;;;;;;;33.58;8.27;;;11.70;99.90;;;;;;4985868;28;20076;-72
2023/05/23 05:24:32;;;;;;;32.65;8.55;;;11.60;99.90;;;;;;4951506;28;207459;-71
2023/05/23 05:26:59;;;;;;;29.17;8.50;;;11.60;99.90;;;;;;4984713;28;20134;-71
2023/05/23 05:29:25;;;;;;;33.30;8.27;;;11.60;99.90;;;;;;4928655;28;210503;-71
2023/05/23 05:31:52;;;;;;;28.52;9.23;;;11.60;99.90;;;;;;4981389;28;20061;-70
2023/05/23 05:34:18;;;;;;;25.58;7.10;;;11.60;99.90;;;;;;4941532;28;208778;-71
2023/05/23 05:36:45;;;;;;;24.10;7.65;;;11.50;99.90;;;;;;4992494;28;20065;-72
2023/05/23 05:39:12;;;;;;;22.15;7.32;;;11.50;99.90;;;;;;4930385;28;157963;-71
2023/05/23 05:41:39;;;;;;;20.38;7.50;;;11.50;99.90;;;;;;4997215;28;20058;-70
2023/05/23 05:44:06;;;;;;;28.00;6.95;;;11.50;99.90;;;;;;4924823;28;212378;-70
2023/05/23 05:46:32;;;;;;;23.05;6.93;;;11.40;99.90;;;;;;4985094;28;20152;-71
2023/05/23 05:48:58;;;;;;;22.98;7.13;;;11.40;99.90;;;;;;4956105;28;218138;-72
2023/05/23 05:51:24;;;;;;;18.70;6.50;;;11.40;99.90;;;;;;4985322;28;20073;-70
2023/05/23 05:53:50;;;;;;;21.70;6.78;;;11.40;99.90;;;;;;4933935;28;235685;-71
2023/05/23 05:56:16;;;;;;;26.30;6.85;;;11.30;99.90;;;;;;4998939;28;20054;-69
2023/05/23 05:58:42;;;;;;;22.23;6.65;;;11.40;99.90;;;;;;4923908;28;211503;-70
2023/05/23 06:01:09;;;;;;;21.38;6.22;;;11.40;99.90;;;;;;5016728;28;20065;-70
2023/05/23 06:03:35;;;;;;;19.98;6.22;;;11.40;99.90;;;;;;4958129;28;207124;-72
2023/05/23 06:06:01;;;;;;;17.73;6.50;;;11.50;99.90;;;;;;5008384;28;20082;-72
2023/05/23 06:08:27;;;;;;;24.83;6.68;;;11.50;99.90;;;;;;4976356;28;205709;-75
2023/05/23 06:10:53;;;;;;;22.27;5.85;;;11.40;99.90;;;;;;5016091;28;20058;-74
2023/05/23 06:13:19;;;;;;;19.52;5.82;;;11.50;99.90;;;;;;4932458;28;208224;-75
2023/05/23 06:15:45;;;;;;;24.10;5.55;;;11.40;99.90;;;;;;5012619;28;20157;-74
2023/05/23 06:18:11;;;;;;;16.07;4.20;;;11.40;99.90;;;;;;4947925;28;210436;-75
2023/05/23 06:20:37;;;;;;;17.08;5.38;;;11.40;99.90;;;;;;5028130;28;20058;-75
2023/05/23 06:23:04;;;;;;;13.95;4.78;;;11.40;99.90;;;;;;4962305;28;209464;-71
2023/05/23 06:25:30;;;;;;;18.67;4.97;;;11.40;99.90;;;;;;4996479;28;20081;-74
2023/05/23 06:27:56;;;;;;;21.50;5.50;;;11.50;99.90;;;;;;4980080;28;20530;-74
2023/05/23 06:30:23;;;;;;;17.95;4.78;;;11.40;99.90;;;;;;4968203;28;201124;-74
2023/05/23 06:32:49;;;;;;;18.30;4.50;;;11.40;99.90;;;;;;4988785;28;20054;-75
2023/05/23 06:35:16;;;;;;;18.63;4.63;;;11.40;99.90;;;;;;4970677;28;205453;-75
2023/05/23 06:37:44;;;;;;;16.98;4.47;;;11.50;99.90;;;;;;4983114;28;20058;-74
2023/05/23 06:40:13;;;;;;;20.58;4.55;;;11.50;99.90;;;;;;4965977;28;226064;-74
2023/05/23 06:42:40;;;;;;;19.42;4.65;;;11.60;99.90;;;;;;5000673;28;20047;-75
2023/05/23 06:45:07;;;;;;;19.52;4.55;;;11.80;99.90;;;;;;4955231;28;236261;-73
2023/05/23 06:47:33;;;;;;;16.50;3.92;;;11.80;99.90;;;;;;5002031;28;20056;-74
2023/05/23 06:49:59;;;;;;;17.40;3.90;;;12.00;99.90;;;;;;4956774;28;207291;-74
2023/05/23 06:52:25;;;;;;;18.88;4.18;;;12.10;99.90;;;;;;5013265;28;20050;-74
2023/05/23 06:54:51;;;;;;;17.05;3.50;;;12.30;99.90;;;;;;4959086;28;212789;-72
2023/05/23 06:57:17;;;;;;;17.60;3.83;;;12.10;99.90;;;;;;4982274;28;20419;-75
2023/05/23 06:59:43;;;;;;;18.02;3.85;;;12.20;99.90;;;;;;4956982;28;206793;-74
2023/05/23 07:02:10;;;;;;;21.77;4.07;;;12.20;99.90;;;;;;5010691;28;20049;-73
2023/05/23 07:04:36;;;;;;;19.92;4.43;;;12.30;99.90;;;;;;4954218;28;205687;-74
2023/05/23 07:07:02;;;;;;;23.45;4.68;;;12.60;99.90;;;;;;4997605;28;20050;-74
2023/05/23 07:09:28;;;;;;;27.52;5.45;;;12.70;99.90;;;;;;4957235;28;205777;-74
2023/05/23 07:11:54;;;;;;;30.65;4.60;;;12.50;99.90;;;;;;5002752;28;20058;-73
2023/05/23 07:14:20;;;;;;;21.30;4.45;;;12.40;99.90;;;;;;4963832;28;207375;-73
2023/05/23 07:16:46;;;;;;;19.42;4.72;;;12.40;99.90;;;;;;5001342;28;20388;-73
2023/05/23 07:19:12;;;;;;;24.05;5.10;;;12.40;99.90;;;;;;4956831;28;206891;-73
2023/05/23 07:21:38;;;;;;;21.50;4.43;;;12.50;99.90;;;;;;5014786;28;20062;-74
2023/05/23 07:24:05;;;;;;;19.05;3.97;;;12.30;99.90;;;;;;4960353;28;214669;-75
2023/05/23 07:26:31;;;;;;;21.60;3.95;;;12.30;99.90;;;;;;4998254;28;20053;-73
2023/05/23 07:28:57;;;;;;;25.55;4.93;;;12.40;99.90;;;;;;4922288;28;210898;-74
2023/05/23 07:31:23;;;;;;;21.35;3.97;;;12.40;99.90;;;;;;4987132;28;20066;-74
2023/05/23 07:33:49;;;;;;;28.75;4.70;;;12.30;99.90;;;;;;4948687;28;213435;-74
2023/05/23 07:36:15;;;;;;;23.00;4.15;;;12.30;99.90;;;;;;5021437;28;20396;-73
2023/05/23 07:38:42;;;;;;;24.95;4.28;;;12.30;99.90;;;;;;4954701;28;227505;-74
2023/05/23 07:41:08;;;;;;;19.67;4.40;;;12.20;99.90;;;;;;5010609;28;20057;-74
2023/05/23 07:43:34;;;;;;;27.08;4.80;;;12.10;99.90;;;;;;4956107;28;181985;-73
2023/05/23 07:46:00;;;;;;;19.33;3.80;;;12.20;99.90;;;;;;5005037;28;20057;-74
2023/05/23 07:48:26;;;;;;;22.58;4.05;;;12.30;99.90;;;;;;4938618;28;200365;-74
2023/05/23 07:50:54;;;;;;;22.65;4.35;;;12.20;99.90;;;;;;4994033;28;20065;-73
2023/05/23 07:53:21;;;;;;;25.90;4.78;;;12.50;99.90;;;;;;4928926;28;207255;-73
2023/05/23 07:55:47;;;;;;;22.88;4.35;;;12.60;99.90;;;;;;5006270;28;20582;-73
2023/05/23 07:58:13;;;;;;;23.70;4.22;;;12.60;99.90;;;;;;4918793;28;207245;-73
2023/05/23 08:00:40;;;;;;;20.48;3.88;;;12.70;99.90;;;;;;5026396;28;20050;-72
2023/05/23 08:03:06;;;;;;;23.98;3.80;;;12.70;99.90;;;;;;4952034;28;207905;-74
2023/05/23 08:05:32;;;;;;;21.00;3.75;;;12.80;99.90;;;;;;5034529;28;20693;-75
2023/05/23 08:07:58;;;;;;;22.15;4.43;;;12.80;99.90;;;;;;4998327;28;216674;-74
2023/05/23 08:10:27;;;;;;;27.33;4.43;;;12.80;99.90;;;;;;4997151;28;168192;-74
2023/05/23 08:12:53;;;;;;;24.35;4.47;;;13.00;99.90;;;;;;5005529;28;20042;-73
2023/05/23 08:15:21;;;;;;;21.23;4.20;;;13.10;99.90;;;;;;4984802;28;228338;-75
2023/05/23 08:17:48;;;;;;;15.85;3.30;;;13.00;99.90;;;;;;5002869;28;20061;-74
2023/05/23 08:20:14;;;;;;;23.38;3.90;;;13.00;99.90;;;;;;4964874;28;212554;-74
2023/05/23 08:22:40;;;;;;;29.13;4.65;;;13.00;99.90;;;;;;5008020;28;20081;-73
2023/05/23 08:25:06;;;;;;;23.13;4.32;;;13.10;99.90;;;;;;4960434;28;211354;-73
2023/05/23 08:27:34;;;;;;;24.27;4.70;;;13.40;99.90;;;;;;5006397;28;20057;-73
2023/05/23 08:30:03;;;;;;;18.05;3.60;;;13.40;99.90;;;;;;4978092;28;207745;-74
2023/05/23 08:32:29;;;;;;;19.58;3.85;;;13.50;99.90;;;;;;4988368;28;20046;-73
2023/05/23 08:34:55;;;;;;;21.15;4.30;;;13.40;99.90;;;;;;4962370;28;213155;-73
2023/05/23 08:37:21;;;;;;;23.92;4.22;;;13.50;99.90;;;;;;4983976;28;20586;-73
2023/05/23 08:39:47;;;;;;;21.92;4.47;;;13.50;99.90;;;;;;4951769;28;212337;-73
2023/05/23 08:42:13;;;;;;;27.52;4.70;;;13.70;99.90;;;;;;4988648;28;20069;-73
2023/05/23 08:44:39;;;;;;;21.35;4.30;;;13.90;99.90;;;;;;4937691;28;209831;-72
2023/05/23 08:47:07;;;;;;;19.70;3.88;;;13.80;99.90;;;;;;4980408;28;20085;-73
2023/05/23 08:49:34;;;;;;;20.40;4.53;;;13.70;99.90;;;;;;4961531;28;207521;-73
2023/05/23 08:52:02;;;;;;;23.67;4.65;;;13.90;99.90;;;;;;5007873;28;20050;-73
2023/05/23 08:54:29;;;;;;;19.63;4.30;;;14.50;99.90;;;;;;4958669;28;207438;-73
2023/05/23 08:56:55;;;;;;;23.33;4.60;;;14.30;99.90;;;;;;4988574;28;20403;-73
2023/05/23 08:59:22;;;;;;;23.27;4.95;;;14.20;99.90;;;;;;4964714;28;114221;-73
2023/05/23 09:01:50;;;;;;;20.45;4.00;;;14.10;99.90;;;;;;5030683;28;20060;-73
2023/05/23 09:04:16;;;;;;;20.38;3.88;;;14.20;99.90;;;;;;4968978;28;213151;-73
2023/05/23 09:06:42;;;;;;;20.55;3.85;;;14.10;99.90;;;;;;5019376;28;20058;-73
2023/05/23 09:09:09;;;;;;;18.60;4.22;;;14.00;99.90;;;;;;4961710;28;210879;-74
2023/05/23 09:11:35;;;;;;;23.52;4.15;;;13.90;99.90;;;;;;5004192;28;20061;-74
2023/05/23 09:14:03;;;;;;;19.15;3.83;;;14.00;99.90;;;;;;4951463;28;208013;-74
2023/05/23 09:16:33;;;;;;;15.35;3.25;;;14.40;99.90;;;;;;5013565;28;21550;-75
2023/05/23 09:19:09;;;;;;;19.75;3.95;;;15.00;99.90;;;;;;4966173;28;206880;-75
2023/05/23 09:21:35;;;;;;;18.65;4.05;;;15.30;99.90;;;;;;4987179;28;20538;-73
2023/05/23 09:24:01;;;;;;;19.27;4.30;;;15.80;99.70;;;;;;4944571;28;206471;-72
2023/05/23 09:26:27;;;;;;;23.38;4.05;;;15.60;99.60;;;;;;4998168;28;20057;-73
2023/05/23 09:28:56;;;;;;;20.00;3.95;;;15.20;99.80;;;;;;4935351;28;208626;-72
2023/05/23 09:31:27;;;;;;;17.48;4.00;;;15.20;99.70;;;;;;5001676;28;20058;-73
2023/05/23 09:33:53;;;;;;;19.65;4.53;;;15.70;99.00;;;;;;4942382;28;207118;-73
2023/05/23 09:36:19;;;;;;;17.52;3.90;;;15.70;99.30;;;;;;5009513;28;20435;-73
2023/05/23 09:38:47;;;;;;;20.52;3.95;;;15.30;99.40;;;;;;4939916;28;210083;-74
2023/05/23 09:41:14;;;;;;;19.50;3.65;;;15.60;99.70;;;;;;4991256;28;20054;-72
2023/05/23 09:43:53;;;;;;;17.20;3.75;;;15.80;99.60;;;;;;4932785;28;219249;-71
2023/05/23 09:46:21;;;;;;;21.35;3.83;;;15.80;99.00;;;;;;4998786;28;20050;-71
2023/05/23 09:48:50;;;;;;;19.33;4.20;;;15.80;98.70;;;;;;4948147;28;213118;-73
2023/05/23 09:51:20;;;;;;;19.23;3.55;;;15.70;98.90;;;;;;4990126;28;20512;-71
2023/05/23 09:53:46;;;;;;;19.05;3.80;;;16.40;98.00;;;;;;4937865;28;223496;-73
2023/05/23 09:56:14;;;;;;;19.25;3.60;;;16.60;98.10;;;;;;5027826;28;20050;-73
2023/05/23 09:58:46;;;;;;;19.33;3.50;;;16.30;98.20;;;;;;4942838;28;212408;-72
2023/05/23 10:01:13;;;;;;;20.50;4.20;;;16.00;98.80;;;;;;4995596;28;20050;-73
2023/05/23 10:03:50;;;;;;;18.95;3.60;;;16.20;98.80;;;;;;4959053;28;207519;-72
2023/05/23 10:06:28;;;;;;;23.30;3.70;;;16.00;98.40;;;;;;5017011;28;20050;-72
2023/05/23 10:09:02;;;;;;;20.95;3.78;;;16.10;99.20;;;;;;4968327;28;207214;-72
2023/05/23 10:11:34;;;;;;;19.77;3.60;;;16.20;98.20;;;;;;5016345;28;20516;-72
2023/05/23 10:14:06;;;;;;;13.70;3.15;;;16.30;97.90;;;;;;4945354;28;208031;-73
2023/05/23 10:16:47;;;;;;;16.27;3.70;;;16.80;97.50;;;;;;4987153;28;20051;-73
2023/05/23 10:19:19;;;;;;;21.13;3.70;;;16.90;97.20;;;;;;4949914;28;207932;-72
2023/05/23 10:21:53;;;;;;;17.33;3.97;;;16.50;97.00;;;;;;4998081;28;20579;-72
2023/05/23 10:24:21;;;;;;;18.23;3.60;;;16.20;98.00;;;;;;4955375;28;208960;-73
2023/05/23 10:26:47;;;;;;;16.63;3.25;;;16.40;97.60;;;;;;5011872;28;20053;-73
2023/05/23 10:29:13;;;;;;;19.40;3.80;;;15.80;98.10;;;;;;4960406;28;207998;-72
2023/05/23 10:31:40;;;;;;;17.90;3.92;;;16.70;98.80;;;;;;5014763;28;20064;-72
2023/05/23 10:34:28;;;;;;;14.98;3.22;;;17.50;97.10;;;;;;4954733;28;207232;-73
2023/05/23 10:37:02;;;;;;;19.80;3.40;;;18.40;95.80;;;;;;4998749;28;20058;-71
2023/05/23 10:39:37;;;;;;;17.50;2.97;;;18.20;95.30;;;;;;4963945;28;207256;-71
2023/05/23 10:42:30;;;;;;;13.88;2.85;;;17.30;95.50;;;;;;4997731;28;20062;-71
2023/05/23 10:45:19;;;;;;;22.70;3.53;;;16.50;96.30;;;;;;4972871;28;207540;-72
2023/05/23 10:47:47;;;;;;;15.02;3.28;;;16.40;97.00;;;;;;5037913;28;20053;-71
2023/05/23 10:50:35;;;;;;;17.52;3.72;;;16.40;96.80;;;;;;4976387;28;230282;-71
2023/05/23 10:53:05;;;;;;;16.65;3.08;;;16.60;97.00;;;;;;4978830;28;213397;-71
2023/05/23 10:55:33;;;;;;;16.27;3.38;;;16.40;96.30;;;;;;5000434;28;20052;-71
2023/05/23 10:58:18;;;;;;;19.35;3.70;;;16.20;96.90;;;;;;4998187;28;210578;-71
2023/05/23 11:01:01;;;;;;;18.33;3.15;;;15.90;96.90;;;;;;4962042;28;20046;-71
2023/05/23 11:03:34;;;;;;;19.67;3.90;;;16.00;96.90;;;;;;4935384;28;207112;-71
2023/05/23 11:06:04;;;;;;;18.63;3.20;;;16.30;96.20;;;;;;5004315;28;20042;-71
2023/05/23 11:08:40;;;;;;;17.35;3.47;;;16.20;96.30;;;;;;4961924;28;208387;-71
2023/05/23 11:11:07;;;;;;;20.05;3.60;;;15.90;96.40;;;;;;5008377;28;20061;-71
2023/05/23 11:13:55;;;;;;;18.05;3.60;;;15.70;96.70;;;;;;4948381;28;207966;-70
2023/05/23 11:16:45;;;;;;;17.13;3.33;;;15.80;96.90;;;;;;4997353;28;20065;-70
2023/05/23 11:19:24;;;;;;;19.50;3.50;;;15.70;97.00;;;;;;4954343;28;233554;-71
2023/05/23 11:21:56;;;;;;;15.35;3.20;;;15.60;96.80;;;;;;5000981;28;20713;-71
2023/05/23 11:24:22;;;;;;;16.65;3.53;;;15.20;97.40;;;;;;4958345;28;207611;-71
2023/05/23 11:27:00;;;;;;;21.42;3.72;;;14.90;98.10;;;;;;5009260;28;20046;-71
2023/05/23 11:29:29;;;;;;;20.73;3.65;;;14.30;98.70;;;;;;4949019;28;188990;-71
2023/05/23 11:31:56;;;;;;;18.45;4.07;;;14.40;98.70;;;;;;4985063;28;20046;-72
2023/05/23 11:34:24;;;;;;;16.45;3.72;;;14.60;98.90;;;;;;4942964;28;241580;-72
2023/05/23 11:36:54;;;;;;;16.73;3.42;;;14.90;98.40;;;;;;4993245;28;20070;-73
2023/05/23 11:39:21;;;;;;;16.48;3.22;;;15.10;97.50;;;;;;4952037;28;207188;-72
2023/05/23 11:41:59;;;;;;;20.35;3.63;;;15.10;97.20;;;;;;4994422;28;20539;-72
2023/05/23 11:44:25;;;;;;;13.98;2.75;;;15.20;97.70;;;;;;4927749;28;209619;-71
2023/05/23 11:47:05;;;;;;;18.58;3.20;;;15.00;96.90;;;;;;4985873;28;20050;-71
2023/05/23 11:49:35;;;;;;;17.33;3.77;;;15.00;97.00;;;;;;4957294;28;209456;-71
2023/05/23 11:52:01;;;;;;;20.75;3.90;;;15.70;97.00;;;;;;4990161;28;20058;-71
2023/05/23 11:54:28;;;;;;;17.80;3.45;;;15.50;97.20;;;;;;4946127;28;213799;-71
2023/05/23 11:56:54;;;;;;;18.92;3.65;;;15.40;97.70;;;;;;4993016;28;20618;-72
2023/05/23 11:59:25;;;;;;;19.13;3.60;;;15.30;98.00;;;;;;4954707;28;212387;-72
2023/05/23 12:01:55;;;;;;;21.55;3.70;;;15.60;97.70;;;;;;5005789;28;20073;-73
2023/05/23 12:04:21;;;;;;;20.08;3.60;;;16.00;97.60;;;;;;4962516;28;213067;-72
2023/05/23 12:06:48;;;;;;;19.73;3.20;;;16.70;97.20;;;;;;4995663;28;20061;-72
2023/05/23 12:09:14;;;;;;;14.73;3.35;;;17.00;96.10;;;;;;4958738;28;213612;-71
2023/05/23 12:11:42;;;;;;;14.13;3.17;;;17.90;95.90;;;;;;5016309;28;20620;-71
2023/05/23 12:14:14;;;;;;;17.25;3.33;;;17.60;95.80;;;;;;4968084;28;207568;-71
2023/05/23 12:16:45;;;;;;;15.38;3.38;;;17.30;96.00;;;;;;5013801;28;20060;-70
2023/05/23 12:19:11;;;;;;;;;;;17.20;96.10;;;;;;4965442;28;208682;-71
2023/05/23 12:21:41;;;;;;;14.65;3.28;;;17.30;95.10;;;;;;5012705;28;20398;-71
2023/05/23 12:24:20;;;;;;;;;;;16.60;95.20;;;;;;4954396;28;209607;-71
2023/05/23 12:26:56;;;;;;;17.80;3.55;;;16.10;95.50;;;;;;4992341;28;19922;-73
2023/05/23 12:29:29;;;;;;;17.15;3.40;;;16.60;96.20;;;;;;4954184;28;206288;-71
2023/05/23 12:31:58;;;;;;;15.98;3.30;;;17.60;95.40;;;;;;4998259;28;20058;-71
2023/05/23 12:34:24;;;;;;;14.98;2.88;;;17.80;94.80;;;;;;4941944;28;226045;-71
2023/05/23 12:36:57;;;;;;;16.80;3.33;;;17.50;94.60;;;;;;4990059;28;20064;-72